Asotin, Washington
Current Conditions -  °F | °C
As of 11:56 AM on Wednesday 17 Dec 2014 (Local Time) from KLWS Reporting Station
Overcast Overcast  
Wind Chill: 38°   Ceiling: 7500
Heat Index: 42°   Visibility: 10mi
Dew Point: 34°   Wind: 6mph
Humidity: 73%   Direction: 60°ENE
Pressure: 29.92"   Gusts: NA
Location:  46.34°N, 117.05°W
Report Text: KLWS 171956Z 06005KT 10SM BKN075 OVC090 06/01 A2992 RMK AO2 SLP142 T00560011
Loading
Personal Weather Stations






























Interactive Weather Map New forecast layout! Learn more

10-Day Weather Forecast

Advertisements
Track Severe Weather on mobile